sensor_id;sensor_type;location;lat;lon;timestamp;pressure;altitude;pressure_sealevel;temperature;humidity
31761;BME280;18335;51.486;7.562;2023-03-22T00:00:13;99700.50;;;11.20;100.00
31761;BME280;18335;51.486;7.562;2023-03-22T00:02:42;99706.09;;;11.27;100.00
31761;BME280;18335;51.486;7.562;2023-03-22T00:05:08;99707.56;;;11.15;100.00
31761;BME280;18335;51.486;7.562;2023-03-22T00:07:35;99702.47;;;11.11;100.00
31761;BME280;18335;51.486;7.562;2023-03-22T00:10:04;99697.31;;;11.17;100.00
31761;BME280;18335;51.486;7.562;2023-03-22T00:12:30;99708.53;;;11.22;100.00
31761;BME280;18335;51.486;7.562;2023-03-22T00:14:58;99696.03;;;11.27;100.00
31761;BME280;18335;51.486;7.562;2023-03-22T00:17:25;99710.53;;;11.28;100.00
31761;BME280;18335;51.486;7.562;2023-03-22T00:19:52;99698.59;;;11.29;100.00
31761;BME280;18335;51.486;7.562;2023-03-22T00:22:19;99706.72;;;11.37;100.00
31761;BME280;18335;51.486;7.562;2023-03-22T00:24:46;99692.63;;;11.25;100.00
31761;BME280;18335;51.486;7.562;2023-03-22T00:27:13;99696.31;;;11.32;100.00
31761;BME280;18335;51.486;7.562;2023-03-22T00:29:40;99699.50;;;11.44;100.00
31761;BME280;18335;51.486;7.562;2023-03-22T00:32:09;99683.91;;;11.44;100.00
31761;BME280;18335;51.486;7.562;2023-03-22T00:34:36;99688.59;;;11.36;100.00
31761;BME280;18335;51.486;7.562;2023-03-22T00:37:02;99686.94;;;11.35;100.00
31761;BME280;18335;51.486;7.562;2023-03-22T00:39:29;99684.13;;;11.43;100.00
31761;BME280;18335;51.486;7.562;2023-03-22T00:41:56;99688.06;;;11.40;100.00
31761;BME280;18335;51.486;7.562;2023-03-22T00:44:23;99683.50;;;11.33;100.00
31761;BME280;18335;51.486;7.562;2023-03-22T00:46:49;99679.75;;;11.34;100.00
31761;BME280;18335;51.486;7.562;2023-03-22T00:49:17;99676.00;;;11.35;100.00
31761;BME280;18335;51.486;7.562;2023-03-22T00:51:44;99677.31;;;11.39;100.00
31761;BME280;18335;51.486;7.562;2023-03-22T00:54:11;99679.19;;;11.38;100.00
31761;BME280;18335;51.486;7.562;2023-03-22T00:56:41;99670.91;;;11.32;100.00
31761;BME280;18335;51.486;7.562;2023-03-22T00:59:12;99668.84;;;11.34;100.00
31761;BME280;18335;51.486;7.562;2023-03-22T01:01:40;99661.78;;;11.39;100.00
31761;BME280;18335;51.486;7.562;2023-03-22T01:04:06;99662.72;;;11.32;100.00
31761;BME280;18335;51.486;7.562;2023-03-22T01:06:34;99658.03;;;11.40;100.00
31761;BME280;18335;51.486;7.562;2023-03-22T01:09:01;99639.44;;;11.36;100.00
31761;BME280;18335;51.486;7.562;2023-03-22T01:11:29;99642.00;;;11.37;100.00
31761;BME280;18335;51.486;7.562;2023-03-22T01:13:55;99634.66;;;11.38;100.00
31761;BME280;18335;51.486;7.562;2023-03-22T01:16:24;99629.56;;;11.35;100.00
31761;BME280;18335;51.486;7.562;2023-03-22T01:18:50;99631.25;;;11.36;100.00
31761;BME280;18335;51.486;7.562;2023-03-22T01:21:17;99622.78;;;11.31;100.00
31761;BME280;18335;51.486;7.562;2023-03-22T01:23:45;99630.59;;;11.34;100.00
31761;BME280;18335;51.486;7.562;2023-03-22T01:26:12;99632.44;;;11.19;100.00
31761;BME280;18335;51.486;7.562;2023-03-22T01:28:39;99627.47;;;11.22;100.00
31761;BME280;18335;51.486;7.562;2023-03-22T01:31:06;99630.59;;;11.34;100.00
31761;BME280;18335;51.486;7.562;2023-03-22T01:33:32;99621.75;;;11.32;100.00
31761;BME280;18335;51.486;7.562;2023-03-22T01:35:59;99621.16;;;11.22;100.00
31761;BME280;18335;51.486;7.562;2023-03-22T01:38:27;99623.03;;;11.21;100.00
31761;BME280;18335;51.486;7.562;2023-03-22T01:40:58;99625.88;;;11.28;100.00
31761;BME280;18335;51.486;7.562;2023-03-22T01:43:28;99627.94;;;11.26;100.00
31761;BME280;18335;51.486;7.562;2023-03-22T01:45:56;99619.38;;;11.29;100.00
31761;BME280;18335;51.486;7.562;2023-03-22T01:48:29;99615.69;;;11.22;100.00
31761;BME280;18335;51.486;7.562;2023-03-22T01:51:02;99617.84;;;11.26;100.00
31761;BME280;18335;51.486;7.562;2023-03-22T01:53:35;99608.88;;;11.18;100.00
31761;BME280;18335;51.486;7.562;2023-03-22T01:56:08;99610.72;;;11.25;100.00
31761;BME280;18335;51.486;7.562;2023-03-22T01:58:37;99605.50;;;11.16;100.00
31761;BME280;18335;51.486;7.562;2023-03-22T02:01:07;99603.16;;;11.27;100.00
31761;BME280;18335;51.486;7.562;2023-03-22T02:03:46;99605.50;;;11.16;100.00
31761;BME280;18335;51.486;7.562;2023-03-22T02:06:14;99596.84;;;11.27;100.00
31761;BME280;18335;51.486;7.562;2023-03-22T02:08:41;99597.59;;;11.21;100.00
31761;BME280;18335;51.486;7.562;2023-03-22T02:11:18;99594.22;;;11.19;100.00
31761;BME280;18335;51.486;7.562;2023-03-22T02:13:59;99589.00;;;11.09;100.00
31761;BME280;18335;51.486;7.562;2023-03-22T02:17:00;99587.91;;;11.33;100.00
31761;BME280;18335;51.486;7.562;2023-03-22T02:20:14;99569.19;;;11.30;100.00
31761;BME280;18335;51.486;7.562;2023-03-22T02:26:08;99576.13;;;11.18;100.00
31761;BME280;18335;51.486;7.562;2023-03-22T02:28:48;99567.94;;;11.18;100.00
31761;BME280;18335;51.486;7.562;2023-03-22T02:31:30;99574.44;;;11.17;100.00
31761;BME280;18335;51.486;7.562;2023-03-22T02:34:31;99566.53;;;11.22;100.00
31761;BME280;18335;51.486;7.562;2023-03-22T02:37:36;99562.78;;;11.23;100.00
31761;BME280;18335;51.486;7.562;2023-03-22T02:40:12;99562.47;;;11.18;100.00
31761;BME280;18335;51.486;7.562;2023-03-22T02:42:49;99565.03;;;11.19;100.00
31761;BME280;18335;51.486;7.562;2023-03-22T02:45:24;99561.59;;;11.02;100.00
31761;BME280;18335;51.486;7.562;2023-03-22T02:48:01;99557.47;;;11.06;100.00
31761;BME280;18335;51.486;7.562;2023-03-22T02:50:36;99556.50;;;10.99;100.00
31761;BME280;18335;51.486;7.562;2023-03-22T02:53:09;99562.44;;;11.03;100.00
31761;BME280;18335;51.486;7.562;2023-03-22T02:55:41;99548.06;;;11.09;100.00
31761;BME280;18335;51.486;7.562;2023-03-22T02:58:13;99544.47;;;11.08;100.00
31761;BME280;18335;51.486;7.562;2023-03-22T03:00:44;99540.59;;;11.03;100.00
31761;BME280;18335;51.486;7.562;2023-03-22T03:03:14;99532.81;;;11.15;100.00
31761;BME280;18335;51.486;7.562;2023-03-22T03:05:45;99533.16;;;10.97;100.00
31761;BME280;18335;51.486;7.562;2023-03-22T03:08:15;99539.94;;;11.01;100.00
31761;BME280;18335;51.486;7.562;2023-03-22T03:10:45;99532.25;;;11.04;100.00
31761;BME280;18335;51.486;7.562;2023-03-22T03:13:14;99535.25;;;10.95;100.00
31761;BME280;18335;51.486;7.562;2023-03-22T03:15:45;99542.88;;;11.14;100.00
31761;BME280;18335;51.486;7.562;2023-03-22T03:18:22;99527.91;;;10.95;100.00
31761;BME280;18335;51.486;7.562;2023-03-22T03:20:57;99522.34;;;11.03;100.00
31761;BME280;18335;51.486;7.562;2023-03-22T03:23:36;99520.84;;;11.01;100.00
31761;BME280;18335;51.486;7.562;2023-03-22T03:26:11;99521.97;;;10.92;100.00
31761;BME280;18335;51.486;7.562;2023-03-22T03:28:46;99517.00;;;10.73;100.00
31761;BME280;18335;51.486;7.562;2023-03-22T03:31:22;99518.47;;;10.83;100.00
31761;BME280;18335;51.486;7.562;2023-03-22T03:33:58;99513.75;;;10.77;100.00
31761;BME280;18335;51.486;7.562;2023-03-22T03:36:31;99516.91;;;10.66;100.00
31761;BME280;18335;51.486;7.562;2023-03-22T03:39:01;99509.34;;;10.53;100.00
31761;BME280;18335;51.486;7.562;2023-03-22T03:41:30;99506.06;;;10.58;100.00
31761;BME280;18335;51.486;7.562;2023-03-22T03:43:58;99505.13;;;10.51;100.00
31761;BME280;18335;51.486;7.562;2023-03-22T03:46:25;99504.66;;;10.39;100.00
31761;BME280;18335;51.486;7.562;2023-03-22T03:48:54;99507.59;;;10.38;100.00
31761;BME280;18335;51.486;7.562;2023-03-22T03:51:23;99508.44;;;10.38;100.00
31761;BME280;18335;51.486;7.562;2023-03-22T03:53:51;99498.78;;;10.28;100.00
31761;BME280;18335;51.486;7.562;2023-03-22T03:56:19;99493.09;;;10.37;100.00
31761;BME280;18335;51.486;7.562;2023-03-22T03:58:49;99501.53;;;10.28;100.00
31761;BME280;18335;51.486;7.562;2023-03-22T04:01:15;99499.34;;;10.23;100.00
31761;BME280;18335;51.486;7.562;2023-03-22T04:04:06;99495.47;;;10.18;100.00
31761;BME280;18335;51.486;7.562;2023-03-22T04:06:43;99499.06;;;10.18;100.00
31761;BME280;18335;51.486;7.562;2023-03-22T04:09:15;99502.44;;;10.20;100.00
31761;BME280;18335;51.486;7.562;2023-03-22T04:11:45;99498.50;;;10.23;100.00
31761;BME280;18335;51.486;7.562;2023-03-22T04:14:14;99497.84;;;10.13;100.00
31761;BME280;18335;51.486;7.562;2023-03-22T04:16:45;99505.72;;;10.08;100.00
31761;BME280;18335;51.486;7.562;2023-03-22T04:19:17;99490.75;;;10.03;100.00
31761;BME280;18335;51.486;7.562;2023-03-22T04:21:44;99490.38;;;10.15;100.00
31761;BME280;18335;51.486;7.562;2023-03-22T04:24:11;99487.06;;;9.96;100.00
31761;BME280;18335;51.486;7.562;2023-03-22T04:26:41;99485.00;;;9.98;100.00
31761;BME280;18335;51.486;7.562;2023-03-22T04:29:24;99494.47;;;10.11;100.00
31761;BME280;18335;51.486;7.562;2023-03-22T04:32:01;99491.41;;;10.14;100.00
31761;BME280;18335;51.486;7.562;2023-03-22T04:34:37;99489.38;;;10.08;100.00
31761;BME280;18335;51.486;7.562;2023-03-22T04:37:09;99480.22;;;10.00;100.00
31761;BME280;18335;51.486;7.562;2023-03-22T04:39:46;99474.47;;;9.95;100.00
31761;BME280;18335;51.486;7.562;2023-03-22T04:42:35;99486.81;;;10.14;100.00
31761;BME280;18335;51.486;7.562;2023-03-22T04:45:14;99482.22;;;10.07;100.00
31761;BME280;18335;51.486;7.562;2023-03-22T04:47:45;99478.66;;;10.06;100.00
31761;BME280;18335;51.486;7.562;2023-03-22T04:50:12;99486.22;;;9.96;100.00
31761;BME280;18335;51.486;7.562;2023-03-22T04:52:46;99481.63;;;9.96;100.00
31761;BME280;18335;51.486;7.562;2023-03-22T04:55:14;99493.94;;;9.84;100.00
31761;BME280;18335;51.486;7.562;2023-03-22T04:57:42;99488.84;;;9.81;100.00
31761;BME280;18335;51.486;7.562;2023-03-22T05:00:10;99496.63;;;9.92;100.00
31761;BME280;18335;51.486;7.562;2023-03-22T05:02:39;99495.31;;;9.88;100.00
31761;BME280;18335;51.486;7.562;2023-03-22T05:05:09;99486.44;;;9.86;100.00
31761;BME280;18335;51.486;7.562;2023-03-22T05:07:39;99488.16;;;9.87;100.00
31761;BME280;18335;51.486;7.562;2023-03-22T05:10:08;99488.00;;;9.81;100.00
31761;BME280;18335;51.486;7.562;2023-03-22T05:12:35;99486.50;;;9.78;100.00
31761;BME280;18335;51.486;7.562;2023-03-22T05:15:27;99483.63;;;9.72;100.00
31761;BME280;18335;51.486;7.562;2023-03-22T05:17:58;99477.47;;;9.78;100.00
31761;BME280;18335;51.486;7.562;2023-03-22T05:20:25;99481.00;;;9.86;100.00
31761;BME280;18335;51.486;7.562;2023-03-22T05:23:07;99488.03;;;10.03;100.00
31761;BME280;18335;51.486;7.562;2023-03-22T05:25:35;99486.00;;;9.97;100.00
31761;BME280;18335;51.486;7.562;2023-03-22T05:28:03;99488.50;;;10.07;100.00
31761;BME280;18335;51.486;7.562;2023-03-22T05:30:39;99495.84;;;10.15;100.00
31761;BME280;18335;51.486;7.562;2023-03-22T05:33:19;99487.81;;;10.13;100.00
31761;BME280;18335;51.486;7.562;2023-03-22T05:35:49;99494.25;;;10.20;100.00
31761;BME280;18335;51.486;7.562;2023-03-22T05:38:16;99488.97;;;10.19;100.00
31761;BME280;18335;51.486;7.562;2023-03-22T05:40:48;99484.41;;;10.11;100.00
31761;BME280;18335;51.486;7.562;2023-03-22T05:43:15;99483.00;;;10.23;100.00
31761;BME280;18335;51.486;7.562;2023-03-22T05:45:46;99479.81;;;10.12;100.00
31761;BME280;18335;51.486;7.562;2023-03-22T05:48:38;99480.75;;;10.27;100.00
31761;BME280;18335;51.486;7.562;2023-03-22T05:51:09;99483.59;;;10.33;100.00
31761;BME280;18335;51.486;7.562;2023-03-22T05:53:38;99479.72;;;10.28;100.00
31761;BME280;18335;51.486;7.562;2023-03-22T05:56:09;99479.34;;;10.31;100.00
31761;BME280;18335;51.486;7.562;2023-03-22T05:58:39;99477.47;;;10.54;100.00
31761;BME280;18335;51.486;7.562;2023-03-22T06:01:09;99488.00;;;10.57;100.00
31761;BME280;18335;51.486;7.562;2023-03-22T06:03:58;99476.81;;;10.67;100.00
31761;BME280;18335;51.486;7.562;2023-03-22T06:06:35;99484.47;;;10.71;100.00
31761;BME280;18335;51.486;7.562;2023-03-22T06:09:10;99476.06;;;10.73;100.00
31761;BME280;18335;51.486;7.562;2023-03-22T06:11:38;99479.88;;;10.86;100.00
31761;BME280;18335;51.486;7.562;2023-03-22T06:14:05;99479.88;;;10.86;100.00
31761;BME280;18335;51.486;7.562;2023-03-22T06:17:01;99473.00;;;10.90;100.00
31761;BME280;18335;51.486;7.562;2023-03-22T06:19:29;99472.50;;;10.72;100.00
31761;BME280;18335;51.486;7.562;2023-03-22T06:21:57;99472.34;;;10.88;100.00
31761;BME280;18335;51.486;7.562;2023-03-22T06:24:25;99466.41;;;10.85;100.00
31761;BME280;18335;51.486;7.562;2023-03-22T06:26:52;99467.63;;;10.82;100.00
31761;BME280;18335;51.486;7.562;2023-03-22T06:29:19;99474.06;;;10.89;100.00
31761;BME280;18335;51.486;7.562;2023-03-22T06:31:46;99467.09;;;11.01;100.00
31761;BME280;18335;51.486;7.562;2023-03-22T06:34:12;99460.13;;;10.99;100.00
31761;BME280;18335;51.486;7.562;2023-03-22T06:36:42;99460.53;;;11.10;100.00
31761;BME280;18335;51.486;7.562;2023-03-22T06:39:12;99460.22;;;11.05;100.00
31761;BME280;18335;51.486;7.562;2023-03-22T06:41:42;99457.69;;;11.04;100.00
31761;BME280;18335;51.486;7.562;2023-03-22T06:44:09;99465.03;;;11.03;100.00
31761;BME280;18335;51.486;7.562;2023-03-22T06:46:51;99466.25;;;11.16;100.00
31761;BME280;18335;51.486;7.562;2023-03-22T06:49:34;99465.66;;;11.20;100.00
31761;BME280;18335;51.486;7.562;2023-03-22T06:52:03;99470.59;;;11.10;100.00
31761;BME280;18335;51.486;7.562;2023-03-22T06:54:32;99460.69;;;11.24;100.00
31761;BME280;18335;51.486;7.562;2023-03-22T06:56:59;99463.25;;;11.40;100.00
31761;BME280;18335;51.486;7.562;2023-03-22T06:59:26;99454.09;;;11.33;100.00
31761;BME280;18335;51.486;7.562;2023-03-22T07:01:53;99461.50;;;11.53;100.00
31761;BME280;18335;51.486;7.562;2023-03-22T07:04:20;99458.53;;;11.34;100.00
31761;BME280;18335;51.486;7.562;2023-03-22T07:06:48;99451.56;;;11.46;100.00
31761;BME280;18335;51.486;7.562;2023-03-22T07:09:16;99448.97;;;11.59;100.00
31761;BME280;18335;51.486;7.562;2023-03-22T07:11:46;99455.19;;;11.53;100.00
31761;BME280;18335;51.486;7.562;2023-03-22T07:14:14;99460.38;;;11.62;100.00
31761;BME280;18335;51.486;7.562;2023-03-22T07:17:00;99450.78;;;11.52;100.00
31761;BME280;18335;51.486;7.562;2023-03-22T07:19:28;99453.66;;;11.65;100.00
31761;BME280;18335;51.486;7.562;2023-03-22T07:21:56;99449.56;;;11.54;100.00
31761;BME280;18335;51.486;7.562;2023-03-22T07:24:25;99443.53;;;11.74;100.00
31761;BME280;18335;51.486;7.562;2023-03-22T07:26:52;99436.69;;;11.84;100.00
31761;BME280;18335;51.486;7.562;2023-03-22T07:29:22;99440.84;;;11.80;100.00
31761;BME280;18335;51.486;7.562;2023-03-22T07:31:49;99434.22;;;11.89;100.00
31761;BME280;18335;51.486;7.562;2023-03-22T07:34:33;99429.53;;;11.83;100.00
31761;BME280;18335;51.486;7.562;2023-03-22T07:37:02;99426.31;;;11.94;100.00
31761;BME280;18335;51.486;7.562;2023-03-22T07:39:32;99430.31;;;11.77;100.00
31761;BME280;18335;51.486;7.562;2023-03-22T07:41:58;99427.91;;;11.89;100.00
31761;BME280;18335;51.486;7.562;2023-03-22T07:44:25;99427.81;;;11.97;100.00
31761;BME280;18335;51.486;7.562;2023-03-22T07:47:27;99421.34;;;12.04;100.00
31761;BME280;18335;51.486;7.562;2023-03-22T07:50:06;99440.78;;;12.09;100.00
31761;BME280;18335;51.486;7.562;2023-03-22T07:52:34;99430.47;;;12.33;100.00
31761;BME280;18335;51.486;7.562;2023-03-22T07:55:04;99425.84;;;12.33;100.00
31761;BME280;18335;51.486;7.562;2023-03-22T07:57:31;99425.84;;;12.61;100.00
31761;BME280;18335;51.486;7.562;2023-03-22T07:59:59;99432.03;;;12.69;100.00
31761;BME280;18335;51.486;7.562;2023-03-22T08:02:41;99422.03;;;12.83;100.00
31761;BME280;18335;51.486;7.562;2023-03-22T08:05:12;99426.31;;;12.92;100.00
31761;BME280;18335;51.486;7.562;2023-03-22T08:07:41;99414.97;;;12.95;100.00
31761;BME280;18335;51.486;7.562;2023-03-22T08:10:10;99414.66;;;13.11;100.00
31761;BME280;18335;51.486;7.562;2023-03-22T08:12:37;99414.97;;;13.29;100.00
31761;BME280;18335;51.486;7.562;2023-03-22T08:15:16;99402.78;;;13.39;100.00
31761;BME280;18335;51.486;7.562;2023-03-22T08:17:43;99414.34;;;13.27;100.00
31761;BME280;18335;51.486;7.562;2023-03-22T08:20:15;99402.94;;;13.24;100.00
31761;BME280;18335;51.486;7.562;2023-03-22T08:22:49;99407.50;;;13.10;100.00
31761;BME280;18335;51.486;7.562;2023-03-22T08:25:26;99406.44;;;13.11;100.00
31761;BME280;18335;51.486;7.562;2023-03-22T08:28:03;99403.22;;;13.01;100.00
31761;BME280;18335;51.486;7.562;2023-03-22T08:30:30;99412.31;;;13.08;100.00
31761;BME280;18335;51.486;7.562;2023-03-22T08:32:57;99412.69;;;13.05;100.00
31761;BME280;18335;51.486;7.562;2023-03-22T08:35:24;99415.38;;;13.20;100.00
31761;BME280;18335;51.486;7.562;2023-03-22T08:37:52;99410.06;;;13.18;100.00
31761;BME280;18335;51.486;7.562;2023-03-22T08:40:20;99418.91;;;13.14;100.00
31761;BME280;18335;51.486;7.562;2023-03-22T08:42:54;99420.84;;;13.20;100.00
31761;BME280;18335;51.486;7.562;2023-03-22T08:45:21;99412.28;;;13.02;100.00
31761;BME280;18335;51.486;7.562;2023-03-22T08:47:58;99415.41;;;13.33;100.00
31761;BME280;18335;51.486;7.562;2023-03-22T08:50:26;99416.09;;;13.42;100.00
31761;BME280;18335;51.486;7.562;2023-03-22T08:53:06;99416.66;;;13.30;100.00
31761;BME280;18335;51.486;7.562;2023-03-22T08:55:34;99415.59;;;13.25;100.00
31761;BME280;18335;51.486;7.562;2023-03-22T08:58:12;99410.78;;;13.34;100.00
31761;BME280;18335;51.486;7.562;2023-03-22T09:01:17;99408.03;;;13.34;100.00
31761;BME280;18335;51.486;7.562;2023-03-22T09:03:56;99422.44;;;13.49;100.00
31761;BME280;18335;51.486;7.562;2023-03-22T09:06:23;99423.34;;;13.56;100.00
31761;BME280;18335;51.486;7.562;2023-03-22T09:08:51;99411.44;;;13.42;100.00
31761;BME280;18335;51.486;7.562;2023-03-22T09:11:20;99412.19;;;13.64;100.00
31761;BME280;18335;51.486;7.562;2023-03-22T09:13:49;99402.75;;;13.79;100.00
31761;BME280;18335;51.486;7.562;2023-03-22T09:16:17;99413.75;;;13.99;100.00
31761;BME280;18335;51.486;7.562;2023-03-22T09:18:45;99403.00;;;14.04;100.00
31761;BME280;18335;51.486;7.562;2023-03-22T09:21:15;99392.22;;;13.90;100.00
31761;BME280;18335;51.486;7.562;2023-03-22T09:23:57;99397.94;;;14.01;100.00
31761;BME280;18335;51.486;7.562;2023-03-22T09:26:35;99396.47;;;14.05;100.00
31761;BME280;18335;51.486;7.562;2023-03-22T09:29:03;99409.34;;;14.05;100.00
31761;BME280;18335;51.486;7.562;2023-03-22T09:31:31;99400.25;;;14.04;100.00
31761;BME280;18335;51.486;7.562;2023-03-22T09:34:20;99391.84;;;14.25;100.00
31761;BME280;18335;51.486;7.562;2023-03-22T09:36:47;99383.88;;;14.44;100.00
31761;BME280;18335;51.486;7.562;2023-03-22T09:39:18;99378.13;;;14.25;100.00
31761;BME280;18335;51.486;7.562;2023-03-22T09:41:50;99383.41;;;14.14;100.00
31761;BME280;18335;51.486;7.562;2023-03-22T09:44:24;99380.50;;;14.42;100.00
31761;BME280;18335;51.486;7.562;2023-03-22T09:46:54;99377.97;;;14.47;100.00
31761;BME280;18335;51.486;7.562;2023-03-22T09:49:27;99374.16;;;14.48;100.00
31761;BME280;18335;51.486;7.562;2023-03-22T09:51:54;99371.63;;;14.46;100.00
31761;BME280;18335;51.486;7.562;2023-03-22T09:54:28;99366.34;;;14.58;100.00
31761;BME280;18335;51.486;7.562;2023-03-22T09:56:59;99364.00;;;14.68;100.00
31761;BME280;18335;51.486;7.562;2023-03-22T09:59:37;99359.38;;;14.75;100.00
31761;BME280;18335;51.486;7.562;2023-03-22T10:02:33;99347.88;;;15.04;100.00
31761;BME280;18335;51.486;7.562;2023-03-22T10:05:11;99342.75;;;15.21;100.00
31761;BME280;18335;51.486;7.562;2023-03-22T10:07:52;99344.03;;;15.18;100.00
31761;BME280;18335;51.486;7.562;2023-03-22T10:10:24;99326.56;;;14.93;100.00
31761;BME280;18335;51.486;7.562;2023-03-22T10:12:56;99352.38;;;14.79;100.00
31761;BME280;18335;51.486;7.562;2023-03-22T10:15:30;99360.59;;;14.79;100.00
31761;BME280;18335;51.486;7.562;2023-03-22T10:17:59;99352.06;;;15.13;100.00
31761;BME280;18335;51.486;7.562;2023-03-22T10:20:33;99352.97;;;14.94;100.00
31761;BME280;18335;51.486;7.562;2023-03-22T10:23:04;99352.97;;;14.87;100.00
31761;BME280;18335;51.486;7.562;2023-03-22T10:25:34;99353.81;;;14.94;100.00
31761;BME280;18335;51.486;7.562;2023-03-22T10:28:11;99347.25;;;15.02;100.00
31761;BME280;18335;51.486;7.562;2023-03-22T10:30:41;99346.66;;;15.51;100.00
31761;BME280;18335;51.486;7.562;2023-03-22T10:33:13;99342.72;;;15.27;100.00
31761;BME280;18335;51.486;7.562;2023-03-22T10:35:40;99344.44;;;15.15;100.00
31761;BME280;18335;51.486;7.562;2023-03-22T10:38:17;99357.56;;;15.20;100.00
31761;BME280;18335;51.486;7.562;2023-03-22T10:40:45;99358.00;;;15.10;100.00
31761;BME280;18335;51.486;7.562;2023-03-22T10:43:18;99363.00;;;15.26;100.00
31761;BME280;18335;51.486;7.562;2023-03-22T10:45:47;99365.53;;;15.34;100.00
31761;BME280;18335;51.486;7.562;2023-03-22T10:48:24;99363.00;;;15.26;100.00
31761;BME280;18335;51.486;7.562;2023-03-22T10:50:52;99361.09;;;15.33;100.00
31761;BME280;18335;51.486;7.562;2023-03-22T10:53:27;99359.88;;;15.16;100.00
31761;BME280;18335;51.486;7.562;2023-03-22T10:55:56;99358.81;;;15.17;100.00
31761;BME280;18335;51.486;7.562;2023-03-22T10:58:28;99358.34;;;15.33;100.00
31761;BME280;18335;51.486;7.562;2023-03-22T11:00:57;99367.34;;;14.96;100.00
31761;BME280;18335;51.486;7.562;2023-03-22T11:03:28;99375.84;;;15.39;100.00
31761;BME280;18335;51.486;7.562;2023-03-22T11:06:00;99365.72;;;15.39;100.00
31761;BME280;18335;51.486;7.562;2023-03-22T11:08:27;99379.50;;;15.26;100.00
31761;BME280;18335;51.486;7.562;2023-03-22T11:10:54;99375.63;;;15.54;100.00
31761;BME280;18335;51.486;7.562;2023-03-22T11:13:24;99373.50;;;15.56;100.00
31761;BME280;18335;51.486;7.562;2023-03-22T11:15:54;99378.47;;;15.21;100.00
31761;BME280;18335;51.486;7.562;2023-03-22T11:18:28;99369.41;;;15.71;100.00
31761;BME280;18335;51.486;7.562;2023-03-22T11:20:58;99358.94;;;15.42;100.00
31761;BME280;18335;51.486;7.562;2023-03-22T11:23:26;99360.88;;;15.35;100.00
31761;BME280;18335;51.486;7.562;2023-03-22T11:25:59;99355.88;;;15.70;100.00
31761;BME280;18335;51.486;7.562;2023-03-22T11:28:27;99363.03;;;16.09;100.00
31761;BME280;18335;51.486;7.562;2023-03-22T11:31:04;99354.00;;;15.95;100.00
31761;BME280;18335;51.486;7.562;2023-03-22T11:33:34;99367.00;;;15.88;100.00
31761;BME280;18335;51.486;7.562;2023-03-22T11:36:04;99347.03;;;15.61;100.00
31761;BME280;18335;51.486;7.562;2023-03-22T11:38:40;99354.81;;;16.33;100.00
31761;BME280;18335;51.486;7.562;2023-03-22T11:41:12;99349.91;;;16.35;100.00
31761;BME280;18335;51.486;7.562;2023-03-22T11:43:42;99355.59;;;16.16;100.00
31761;BME280;18335;51.486;7.562;2023-03-22T11:46:15;99347.13;;;15.86;100.00
31761;BME280;18335;51.486;7.562;2023-03-22T11:48:46;99361.50;;;16.44;100.00
31761;BME280;18335;51.486;7.562;2023-03-22T11:51:16;99342.56;;;15.98;100.00
31761;BME280;18335;51.486;7.562;2023-03-22T11:53:45;99340.81;;;15.79;100.00
31761;BME280;18335;51.486;7.562;2023-03-22T11:56:17;99335.94;;;15.74;100.00
31761;BME280;18335;51.486;7.562;2023-03-22T11:59:04;99343.00;;;15.64;100.00
31761;BME280;18335;51.486;7.562;2023-03-22T12:01:36;99343.28;;;15.42;100.00
31761;BME280;18335;51.486;7.562;2023-03-22T12:04:09;99340.25;;;15.64;100.00
31761;BME280;18335;51.486;7.562;2023-03-22T12:06:38;99348.41;;;15.32;100.00
31761;BME280;18335;51.486;7.562;2023-03-22T12:09:15;99343.75;;;15.26;100.00
31761;BME280;18335;51.486;7.562;2023-03-22T12:11:46;99340.13;;;15.39;100.00
31761;BME280;18335;51.486;7.562;2023-03-22T12:14:18;99338.09;;;15.21;100.00
31761;BME280;18335;51.486;7.562;2023-03-22T12:16:49;99332.81;;;15.20;100.00
31761;BME280;18335;51.486;7.562;2023-03-22T12:19:25;99337.34;;;14.94;100.00
31761;BME280;18335;51.486;7.562;2023-03-22T12:21:57;99339.03;;;14.95;100.00
31761;BME280;18335;51.486;7.562;2023-03-22T12:24:27;99344.34;;;14.84;100.00
31761;BME280;18335;51.486;7.562;2023-03-22T12:26:57;99334.41;;;14.83;100.00
31761;BME280;18335;51.486;7.562;2023-03-22T12:29:25;99328.06;;;14.89;100.00
31761;BME280;18335;51.486;7.562;2023-03-22T12:31:58;99325.47;;;15.07;100.00
31761;BME280;18335;51.486;7.562;2023-03-22T12:34:36;99321.50;;;14.90;100.00
31761;BME280;18335;51.486;7.562;2023-03-22T12:37:05;99318.09;;;15.01;100.00
31761;BME280;18335;51.486;7.562;2023-03-22T12:39:36;99304.28;;;15.14;100.00
31761;BME280;18335;51.486;7.562;2023-03-22T12:42:12;99304.97;;;14.96;100.00
31761;BME280;18335;51.486;7.562;2023-03-22T12:44:43;99311.56;;;14.89;100.00
31761;BME280;18335;51.486;7.562;2023-03-22T12:47:15;99320.50;;;14.65;100.00
31761;BME280;18335;51.486;7.562;2023-03-22T12:49:51;99309.53;;;14.65;100.00
31761;BME280;18335;51.486;7.562;2023-03-22T12:52:25;99317.94;;;14.70;100.00
31761;BME280;18335;51.486;7.562;2023-03-22T12:54:57;99319.59;;;14.90;100.00
31761;BME280;18335;51.486;7.562;2023-03-22T12:57:26;99319.56;;;14.97;100.00
31761;BME280;18335;51.486;7.562;2023-03-22T12:59:55;99318.72;;;15.03;100.00
31761;BME280;18335;51.486;7.562;2023-03-22T13:02:24;99330.91;;;15.20;100.00
31761;BME280;18335;51.486;7.562;2023-03-22T13:04:56;99347.53;;;14.81;100.00
31761;BME280;18335;51.486;7.562;2023-03-22T13:07:38;99339.50;;;14.73;100.00
31761;BME280;18335;51.486;7.562;2023-03-22T13:13:42;99331.69;;;14.70;100.00
31761;BME280;18335;51.486;7.562;2023-03-22T13:16:15;99333.81;;;14.68;100.00
31761;BME280;18335;51.486;7.562;2023-03-22T13:19:21;99343.75;;;14.69;100.00
31761;BME280;18335;51.486;7.562;2023-03-22T13:22:12;99345.56;;;15.01;100.00